Time,TemperatureF,DewpointF,PressureIn,WindDirection,WindDirectionDegrees,WindSpeedMPH,WindSpeedGustMPH,Humidity,HourlyPrecipIn,Conditions,Clouds,dailyrainin,SoftwareType,DateUTC
2013-03-02 00:06:00,41.7,19.0,30.27,NNW,340,0.0,2.0,41,0.00,,,0.00,weatherlink.com 1.10,2013-03-02 07:06:00,
2013-03-02 00:21:00,42.7,20.0,30.27,NNW,338,4.0,4.0,40,0.00,,,0.00,weatherlink.com 1.10,2013-03-02 07:21:00,
2013-03-02 00:36:00,43.4,20.0,30.27,NW,325,1.0,8.0,39,0.00,,,0.00,weatherlink.com 1.10,2013-03-02 07:36:00,
2013-03-02 00:51:00,43.7,20.0,30.27,NW,306,0.0,6.0,39,0.00,,,0.00,weatherlink.com 1.10,2013-03-02 07:51:00,
2013-03-02 01:07:00,43.1,20.0,30.27,NW,306,0.0,1.0,39,0.00,,,0.00,weatherlink.com 1.10,2013-03-02 08:07:00,
2013-03-02 01:21:00,42.3,19.0,30.27,NW,306,0.0,3.0,40,0.00,,,0.00,weatherlink.com 1.10,2013-03-02 08:21:00,
2013-03-02 01:36:00,39.8,19.0,30.27,NNE,18,0.0,3.0,44,0.00,,,0.00,weatherlink.com 1.10,2013-03-02 08:36:00,
2013-03-02 01:51:00,39.2,19.0,30.27,NNE,18,0.0,0.0,45,0.00,,,0.00,weatherlink.com 1.10,2013-03-02 08:51:00,
2013-03-02 02:07:00,38.3,19.0,30.26,NNE,18,0.0,1.0,46,0.00,,,0.00,weatherlink.com 1.10,2013-03-02 09:07:00,
2013-03-02 02:21:00,37.2,19.0,30.26,NNE,18,0.0,1.0,49,0.00,,,0.00,weatherlink.com 1.10,2013-03-02 09:21:00,
2013-03-02 02:36:00,37.4,20.0,30.26,NNE,18,0.0,0.0,49,0.00,,,0.00,weatherlink.com 1.10,2013-03-02 09:36:00,
2013-03-02 02:51:00,36.8,20.0,30.25,NNE,18,0.0,0.0,50,0.00,,,0.00,weatherlink.com 1.10,2013-03-02 09:51:00,
2013-03-02 03:06:00,37.2,20.0,30.25,NNE,18,0.0,2.0,50,0.00,,,0.00,weatherlink.com 1.10,2013-03-02 10:06:00,
2013-03-02 03:21:00,37.8,20.0,30.25,NNW,330,0.0,3.0,48,0.00,,,0.00,weatherlink.com 1.10,2013-03-02 10:21:00,
2013-03-02 03:37:00,35.7,19.0,30.26,NNW,331,0.0,0.0,50,0.00,,,0.00,weatherlink.com 1.10,2013-03-02 10:37:00,
2013-03-02 03:52:00,34.3,19.0,30.26,NNW,331,0.0,1.0,54,0.00,,,0.00,weatherlink.com 1.10,2013-03-02 10:52:00,
2013-03-02 04:07:00,33.4,19.0,30.27,NNW,331,0.0,1.0,55,0.00,,,0.00,weatherlink.com 1.10,2013-03-02 11:07:00,
2013-03-02 04:22:00,32.5,19.0,30.28,NNW,331,0.0,0.0,57,0.00,,,0.00,weatherlink.com 1.10,2013-03-02 11:22:00,
2013-03-02 04:37:00,31.4,18.0,30.28,NNW,331,0.0,1.0,59,0.00,,,0.00,weatherlink.com 1.10,2013-03-02 11:37:00,
2013-03-02 04:51:00,31.0,19.0,30.28,NNW,331,0.0,0.0,61,0.00,,,0.00,weatherlink.com 1.10,2013-03-02 11:51:00,
2013-03-02 05:07:00,30.4,18.0,30.28,NNW,331,0.0,0.0,61,0.00,,,0.00,weatherlink.com 1.10,2013-03-02 12:07:00,
2013-03-02 05:22:00,30.1,18.0,30.29,NNW,331,0.0,0.0,62,0.00,,,0.00,weatherlink.com 1.10,2013-03-02 12:22:00,
2013-03-02 05:37:00,29.9,19.0,30.29,NNW,331,0.0,0.0,65,0.00,,,0.00,weatherlink.com 1.10,2013-03-02 12:37:00,
2013-03-02 05:52:00,31.2,19.0,30.29,NNW,331,0.0,2.0,62,0.00,,,0.00,weatherlink.com 1.10,2013-03-02 12:52:00,
2013-03-02 06:07:00,33.0,20.0,30.30,NNW,344,2.0,5.0,59,0.00,,,0.00,weatherlink.com 1.10,2013-03-02 13:07:00,
2013-03-02 06:22:00,34.3,20.0,30.30,North,5,1.0,4.0,57,0.00,,,0.00,weatherlink.com 1.10,2013-03-02 13:22:00,
2013-03-02 06:37:00,34.4,20.0,30.30,North,11,0.0,2.0,56,0.00,,,0.00,weatherlink.com 1.10,2013-03-02 13:37:00,
2013-03-02 06:52:00,33.6,20.0,30.30,North,11,0.0,1.0,58,0.00,,,0.00,weatherlink.com 1.10,2013-03-02 13:52:00,
2013-03-02 07:07:00,34.9,20.0,30.30,North,11,0.0,2.0,56,0.00,,,0.00,weatherlink.com 1.10,2013-03-02 14:07:00,
2013-03-02 07:22:00,36.4,21.0,30.31,North,5,0.0,0.0,54,0.00,,,0.00,weatherlink.com 1.10,2013-03-02 14:22:00,
2013-03-02 07:37:00,38.4,22.0,30.32,NNW,334,0.0,5.0,51,0.00,,,0.00,weatherlink.com 1.10,2013-03-02 14:37:00,
2013-03-02 07:52:00,39.8,21.0,30.32,NNW,339,1.0,7.0,47,0.00,,,0.00,weatherlink.com 1.10,2013-03-02 14:52:00,
2013-03-02 08:07:00,40.9,21.0,30.32,North,349,3.0,8.0,45,0.00,,,0.00,weatherlink.com 1.10,2013-03-02 15:07:00,
2013-03-02 08:22:00,42.3,21.0,30.32,NNW,340,4.0,8.0,43,0.00,,,0.00,weatherlink.com 1.10,2013-03-02 15:22:00,
2013-03-02 08:37:00,43.1,21.0,30.32,NNW,335,2.0,7.0,42,0.00,,,0.00,weatherlink.com 1.10,2013-03-02 15:37:00,
2013-03-02 08:52:00,44.0,21.0,30.32,North,355,6.0,10.0,40,0.00,,,0.00,weatherlink.com 1.10,2013-03-02 15:52:00,
2013-03-02 09:07:00,45.1,21.0,30.32,North,355,5.0,9.0,39,0.00,,,0.00,weatherlink.com 1.10,2013-03-02 16:07:00,
2013-03-02 09:22:00,46.5,21.0,30.31,North,5,5.0,9.0,37,0.00,,,0.00,weatherlink.com 1.10,2013-03-02 16:22:00,
2013-03-02 09:37:00,47.6,22.0,30.31,NNW,341,2.0,11.0,36,0.00,,,0.00,weatherlink.com 1.10,2013-03-02 16:37:00,
2013-03-02 09:52:00,48.8,21.0,30.30,NW,323,6.0,9.0,34,0.00,,,0.00,weatherlink.com 1.10,2013-03-02 16:52:00,
2013-03-02 10:07:00,49.8,22.0,30.30,NNW,333,1.0,9.0,33,0.00,,,0.00,weatherlink.com 1.10,2013-03-02 17:07:00,
2013-03-02 10:22:00,50.6,21.0,30.29,North,11,3.0,10.0,31,0.00,,,0.00,weatherlink.com 1.10,2013-03-02 17:22:00,
2013-03-02 10:37:00,51.3,21.0,30.29,NNW,342,6.0,7.0,30,0.00,,,0.00,weatherlink.com 1.10,2013-03-02 17:37:00,
2013-03-02 10:53:00,52.0,21.0,30.28,NNE,14,6.0,10.0,30,0.00,,,0.00,weatherlink.com 1.10,2013-03-02 17:53:00,
2013-03-02 11:08:00,53.0,21.0,30.27,WNW,301,8.0,8.0,29,0.00,,,0.00,weatherlink.com 1.10,2013-03-02 18:08:00,
2013-03-02 11:23:00,53.5,22.0,30.27,WNW,298,9.0,9.0,29,0.00,,,0.00,weatherlink.com 1.10,2013-03-02 18:23:00,
2013-03-02 11:38:00,54.2,22.0,30.26,West,281,1.0,9.0,28,0.00,,,0.00,weatherlink.com 1.10,2013-03-02 18:38:00,
2013-03-02 11:53:00,54.5,22.0,30.25,NW,317,0.0,7.0,28,0.00,,,0.00,weatherlink.com 1.10,2013-03-02 18:53:00,
2013-03-02 12:08:00,55.3,22.0,30.24,WNW,288,4.0,7.0,27,0.00,,,0.00,weatherlink.com 1.10,2013-03-02 19:08:00,
2013-03-02 12:23:00,56.9,22.0,30.22,West,263,6.0,9.0,26,0.00,,,0.00,weatherlink.com 1.10,2013-03-02 19:23:00,
2013-03-02 12:38:00,57.4,23.0,30.21,SW,231,4.0,9.0,26,0.00,,,0.00,weatherlink.com 1.10,2013-03-02 19:38:00,
2013-03-02 12:53:00,58.8,23.0,30.20,NNW,335,1.0,4.0,25,0.00,,,0.00,weatherlink.com 1.10,2013-03-02 19:53:00,
2013-03-02 13:08:00,59.1,21.0,30.19,West,271,2.0,11.0,23,0.00,,,0.00,weatherlink.com 1.10,2013-03-02 20:08:00,
2013-03-02 13:23:00,59.9,22.0,30.18,NW,315,0.0,9.0,23,0.00,,,0.00,weatherlink.com 1.10,2013-03-02 20:23:00,
2013-03-02 13:38:00,59.9,21.0,30.18,SW,227,2.0,9.0,22,0.00,,,0.00,weatherlink.com 1.10,2013-03-02 20:38:00,
2013-03-02 13:53:00,60.6,21.0,30.17,South,188,1.0,8.0,22,0.00,,,0.00,weatherlink.com 1.10,2013-03-02 20:53:00,
2013-03-02 14:08:00,61.1,20.0,30.16,West,277,7.0,12.0,20,0.00,,,0.00,weatherlink.com 1.10,2013-03-02 21:08:00,
2013-03-02 14:23:00,61.8,20.0,30.15,SW,219,3.0,7.0,20,0.00,,,0.00,weatherlink.com 1.10,2013-03-02 21:23:00,
2013-03-02 14:38:00,63.4,20.0,30.14,NNW,333,0.0,8.0,19,0.00,,,0.00,weatherlink.com 1.10,2013-03-02 21:38:00,
2013-03-02 14:53:00,64.0,19.0,30.14,SW,227,1.0,9.0,18,0.00,,,0.00,weatherlink.com 1.10,2013-03-02 21:53:00,
2013-03-02 15:08:00,64.1,20.0,30.13,SSW,207,3.0,8.0,18,0.00,,,0.00,weatherlink.com 1.10,2013-03-02 22:08:00,
2013-03-02 15:23:00,64.6,20.0,30.12,SSW,194,2.0,7.0,18,0.00,,,0.00,weatherlink.com 1.10,2013-03-02 22:23:00,
2013-03-02 15:38:00,65.3,19.0,30.11,SW,216,4.0,8.0,17,0.00,,,0.00,weatherlink.com 1.10,2013-03-02 22:38:00,
2013-03-02 15:53:00,65.8,18.0,30.11,WSW,241,4.0,6.0,16,0.00,,,0.00,weatherlink.com 1.10,2013-03-02 22:53:00,
2013-03-02 16:08:00,66.0,18.0,30.10,WNW,285,2.0,8.0,16,0.00,,,0.00,weatherlink.com 1.10,2013-03-02 23:08:00,
2013-03-02 16:24:00,66.0,18.0,30.10,South,190,3.0,9.0,16,0.00,,,0.00,weatherlink.com 1.10,2013-03-02 23:24:00,
2013-03-02 16:39:00,65.9,18.0,30.09,SSW,199,3.0,6.0,16,0.00,,,0.00,weatherlink.com 1.10,2013-03-02 23:39:00,
2013-03-02 16:54:00,65.9,18.0,30.09,SW,216,2.0,7.0,16,0.00,,,0.00,weatherlink.com 1.10,2013-03-02 23:54:00,
2013-03-02 17:09:00,65.9,18.0,30.08,SW,222,3.0,7.0,16,0.00,,,0.00,weatherlink.com 1.10,2013-03-03 00:09:00,
2013-03-02 17:24:00,65.2,19.0,30.08,SW,218,3.0,4.0,17,0.00,,,0.00,weatherlink.com 1.10,2013-03-03 00:24:00,
2013-03-02 17:39:00,65.0,19.0,30.07,SW,217,3.0,3.0,17,0.00,,,0.00,weatherlink.com 1.10,2013-03-03 00:39:00,
2013-03-02 17:54:00,63.3,19.0,30.07,SW,217,0.0,2.0,18,0.00,,,0.00,weatherlink.com 1.10,2013-03-03 00:54:00,
2013-03-02 18:09:00,60.8,19.0,30.07,SSW,213,0.0,3.0,20,0.00,,,0.00,weatherlink.com 1.10,2013-03-03 01:09:00,
2013-03-02 18:24:00,58.5,20.0,30.07,SSW,211,1.0,3.0,22,0.00,,,0.00,weatherlink.com 1.10,2013-03-03 01:24:00,
2013-03-02 18:39:00,56.8,19.0,30.07,SSW,207,0.0,1.0,23,0.00,,,0.00,weatherlink.com 1.10,2013-03-03 01:39:00,
2013-03-02 18:54:00,55.7,19.0,30.07,SSW,207,0.0,0.0,24,0.00,,,0.00,weatherlink.com 1.10,2013-03-03 01:54:00,
2013-03-02 19:09:00,53.9,20.0,30.08,SSW,207,0.0,0.0,26,0.00,,,0.00,weatherlink.com 1.10,2013-03-03 02:09:00,
2013-03-02 19:24:00,53.0,20.0,30.08,SSW,207,0.0,0.0,27,0.00,,,0.00,weatherlink.com 1.10,2013-03-03 02:24:00,
2013-03-02 19:39:00,52.0,20.0,30.08,SSW,207,0.0,0.0,28,0.00,,,0.00,weatherlink.com 1.10,2013-03-03 02:39:00,
2013-03-02 19:54:00,50.8,20.0,30.08,SSW,207,0.0,0.0,30,0.00,,,0.00,weatherlink.com 1.10,2013-03-03 02:54:00,
2013-03-02 20:09:00,49.8,20.0,30.09,SSW,207,0.0,0.0,31,0.00,,,0.00,weatherlink.com 1.10,2013-03-03 03:09:00,
2013-03-02 20:24:00,49.4,20.0,30.09,SSW,207,0.0,0.0,31,0.00,,,0.00,weatherlink.com 1.10,2013-03-03 03:24:00,
2013-03-02 20:39:00,48.8,20.0,30.09,SSW,207,1.0,2.0,32,0.00,,,0.00,weatherlink.com 1.10,2013-03-03 03:39:00,
2013-03-02 20:54:00,49.5,20.0,30.09,SSW,207,0.0,2.0,31,0.00,,,0.00,weatherlink.com 1.10,2013-03-03 03:54:00,
2013-03-02 21:09:00,47.7,20.0,30.10,SSW,207,0.0,0.0,33,0.00,,,0.00,weatherlink.com 1.10,2013-03-03 04:09:00,
2013-03-02 21:24:00,46.6,20.0,30.09,SSW,207,0.0,1.0,35,0.00,,,0.00,weatherlink.com 1.10,2013-03-03 04:24:00,
2013-03-02 21:39:00,45.9,20.0,30.09,SSW,207,0.0,0.0,35,0.00,,,0.00,weatherlink.com 1.10,2013-03-03 04:39:00,
2013-03-02 21:54:00,45.0,20.0,30.09,SSW,207,0.0,0.0,37,0.00,,,0.00,weatherlink.com 1.10,2013-03-03 04:54:00,
2013-03-02 22:09:00,44.1,20.0,30.09,SSW,207,0.0,0.0,38,0.00,,,0.00,weatherlink.com 1.10,2013-03-03 05:09:00,
2013-03-02 22:24:00,43.8,20.0,30.08,SSW,207,0.0,0.0,39,0.00,,,0.00,weatherlink.com 1.10,2013-03-03 05:24:00,
2013-03-02 22:39:00,43.1,20.0,30.08,SSW,207,0.0,1.0,40,0.00,,,0.00,weatherlink.com 1.10,2013-03-03 05:39:00,
2013-03-02 22:54:00,42.9,20.0,30.08,SSW,193,0.0,1.0,40,0.00,,,0.00,weatherlink.com 1.10,2013-03-03 05:54:00,
2013-03-02 23:09:00,42.8,20.0,30.07,SSW,193,0.0,1.0,40,0.00,,,0.00,weatherlink.com 1.10,2013-03-03 06:09:00,
2013-03-02 23:24:00,42.7,20.0,30.06,South,184,0.0,1.0,40,0.00,,,0.00,weatherlink.com 1.10,2013-03-03 06:24:00,
2013-03-02 23:39:00,42.9,20.0,30.06,South,175,0.0,1.0,40,0.00,,,0.00,weatherlink.com 1.10,2013-03-03 06:39:00,
2013-03-02 23:54:00,42.3,19.0,30.06,South,175,0.0,1.0,40,0.00,,,0.00,weatherlink.com 1.10,2013-03-03 06:54:00,